Terminal Aerodrome Forecast
Issued by NWS Boston, MA

Home | Current Version | Previous Version | Text Only | Print | Product List | Glossary On
Versions: 1 2 3 4 5 6 7 8 9 10 11 12 13 14 15 16 17 18 19 20 21 22 23 24
000
FTUS41 KBOX 232333
TAFBOS
TAF
KBOS 232333Z 2400/2506 19010KT 4SM -RA BR OVC010
     FM240130 19008KT P6SM BKN008 OVC010
     FM240400 23009KT P6SM OVC008
     FM240800 24010KT P6SM OVC130
     FM241700 30007KT P6SM SCT200
     FM242300 36005KT P6SM BKN130=

USA.gov is the U.S. government's official web portal to all federal, state and local government web resources and services.